createdAt,value
2018-11-05T00:00:25.128Z,99906.58
2018-11-05T00:02:54.132Z,99902.54
2018-11-05T00:05:23.220Z,99894.37
2018-11-05T00:07:52.283Z,99890.75
2018-11-05T00:10:21.260Z,99883.06
2018-11-05T00:12:50.194Z,99876.56
2018-11-05T00:15:19.089Z,99885.55
2018-11-05T00:17:48.007Z,99876.80
2018-11-05T00:20:16.969Z,99877.59
2018-11-05T00:22:45.931Z,99877.41
2018-11-05T00:25:14.978Z,99879.61
2018-11-05T00:27:43.980Z,99890.70
2018-11-05T00:30:13.890Z,99895.64
2018-11-05T00:32:44.516Z,99886.45
2018-11-05T00:35:13.820Z,99886.39
2018-11-05T00:37:42.812Z,99890.95
2018-11-05T00:40:14.258Z,99894.66
2018-11-05T00:42:44.008Z,99893.52
2018-11-05T00:45:13.378Z,99892.73
2018-11-05T00:47:42.781Z,99881.52
2018-11-05T00:50:13.327Z,99877.66
2018-11-05T00:52:42.279Z,99875.88
2018-11-05T00:55:11.940Z,99883.72
2018-11-05T00:57:40.888Z,99878.91
2018-11-05T01:00:12.672Z,99874.09
2018-11-05T01:02:42.080Z,99888.70
2018-11-05T01:05:12.445Z,99878.73
2018-11-05T01:07:42.030Z,99872.74
2018-11-05T01:10:12.258Z,99871.72
2018-11-05T01:12:41.286Z,99861.03
2018-11-05T01:15:12.387Z,99851.50
2018-11-05T01:17:41.559Z,99856.03
2018-11-05T01:20:11.745Z,99859.52
2018-11-05T01:22:40.774Z,99863.84
2018-11-05T01:25:09.871Z,99858.12
2018-11-05T01:27:38.973Z,99857.77
2018-11-05T01:30:11.151Z,99862.45
2018-11-05T01:32:40.100Z,99856.26
2018-11-05T01:35:10.675Z,99849.75
2018-11-05T01:37:39.612Z,99840.06
2018-11-05T01:40:10.498Z,99844.04
2018-11-05T01:42:39.525Z,99844.12
2018-11-05T01:45:09.718Z,99848.47
2018-11-05T01:47:38.834Z,99851.00
2018-11-05T01:50:09.256Z,99840.75
2018-11-05T01:52:38.313Z,99836.22
2018-11-05T01:55:07.877Z,99832.52
2018-11-05T01:57:36.952Z,99852.69
2018-11-05T02:00:08.603Z,99842.19
2018-11-05T02:02:37.527Z,99842.94
2018-11-05T02:05:07.177Z,99841.87
2018-11-05T02:07:36.077Z,99847.31
2018-11-05T02:10:08.020Z,99850.05
2018-11-05T02:12:36.883Z,99860.25
2018-11-05T02:15:06.270Z,99857.61
2018-11-05T02:17:35.234Z,99859.80
2018-11-05T02:20:05.707Z,99858.22
2018-11-05T02:22:34.688Z,99865.50
2018-11-05T02:25:03.676Z,99868.42
2018-11-05T02:27:32.645Z,99863.05
2018-11-05T02:30:01.876Z,99853.08
2018-11-05T02:32:31.061Z,99852.56
2018-11-05T02:35:00.084Z,99851.05
2018-11-05T02:37:29.228Z,99850.66
2018-11-05T02:39:58.177Z,99853.69
2018-11-05T02:42:27.134Z,99848.55
2018-11-05T02:44:56.167Z,99848.66
2018-11-05T02:47:25.083Z,99847.13
2018-11-05T02:49:54.113Z,99852.16
2018-11-05T02:52:23.093Z,99853.84
2018-11-05T02:54:52.066Z,99850.84
2018-11-05T02:57:21.365Z,99855.45
2018-11-05T02:59:50.313Z,99855.63
2018-11-05T03:02:19.619Z,99844.41
2018-11-05T03:04:48.732Z,99843.29
2018-11-05T03:07:17.662Z,99834.17
2018-11-05T03:09:46.679Z,99836.25
2018-11-05T03:12:15.641Z,99836.50
2018-11-05T03:14:46.533Z,99835.32
2018-11-05T03:17:15.440Z,99835.69
2018-11-05T03:19:44.370Z,99840.05
2018-11-05T03:22:13.400Z,99833.82
2018-11-05T03:24:42.573Z,99837.61
2018-11-05T03:27:11.524Z,99828.22
2018-11-05T03:29:40.495Z,99827.39
2018-11-05T03:32:09.431Z,99826.69
2018-11-05T03:34:38.418Z,99825.53
2018-11-05T03:37:07.369Z,99832.80
2018-11-05T03:39:36.357Z,99827.95
2018-11-05T03:42:05.852Z,99836.20
2018-11-05T03:44:34.794Z,99832.59
2018-11-05T03:47:03.882Z,99829.40
2018-11-05T03:49:33.017Z,99820.50
2018-11-05T03:52:01.962Z,99825.04
2018-11-05T03:54:31.000Z,99826.11
2018-11-05T03:57:00.070Z,99816.73
2018-11-05T03:59:29.013Z,99815.03
2018-11-05T04:01:57.979Z,99804.86
2018-11-05T04:04:26.900Z,99812.95
2018-11-05T04:06:55.888Z,99808.77
2018-11-05T04:09:24.854Z,99811.28
2018-11-05T04:11:53.785Z,99804.69
2018-11-05T04:14:22.815Z,99802.77
2018-11-05T04:16:52.182Z,99794.20
2018-11-05T04:19:25.649Z,99792.52
2018-11-05T04:21:54.591Z,99801.92
2018-11-05T04:24:23.572Z,99812.97
2018-11-05T04:26:52.725Z,99781.71
2018-11-05T04:29:21.757Z,99786.38
2018-11-05T04:31:50.708Z,99780.92
2018-11-05T04:34:19.629Z,99784.45
2018-11-05T04:36:48.669Z,99775.89
2018-11-05T04:39:17.599Z,99768.88
2018-11-05T04:41:46.574Z,99774.73
2018-11-05T04:44:15.684Z,99790.96
2018-11-05T04:46:44.609Z,99778.97
2018-11-05T04:49:13.917Z,99782.79
2018-11-05T04:51:42.930Z,99781.45
2018-11-05T04:54:11.891Z,99790.22
2018-11-05T04:56:40.877Z,99789.22
2018-11-05T04:59:09.885Z,99786.09
2018-11-05T05:01:38.831Z,99786.13
2018-11-05T05:04:07.773Z,99785.88
2018-11-05T05:06:36.715Z,99788.61
2018-11-05T05:09:08.546Z,99789.22
2018-11-05T05:11:37.575Z,99783.34
2018-11-05T05:14:07.439Z,99784.95
2018-11-05T05:16:36.658Z,99775.17
2018-11-05T05:19:05.601Z,99791.75
2018-11-05T05:21:34.639Z,99782.60
2018-11-05T05:24:03.840Z,99783.69
2018-11-05T05:26:32.785Z,99778.73
2018-11-05T05:29:01.850Z,99776.97
2018-11-05T05:31:30.955Z,99777.34
2018-11-05T05:33:59.899Z,99778.19
2018-11-05T05:36:29.211Z,99772.02
2018-11-05T05:38:58.165Z,99774.20
2018-11-05T05:41:27.104Z,99773.02
2018-11-05T05:43:56.037Z,99777.93
2018-11-05T05:46:25.100Z,99773.06
2018-11-05T05:48:54.077Z,99782.47
2018-11-05T05:51:23.047Z,99786.67
2018-11-05T05:53:52.010Z,99768.71
2018-11-05T05:56:21.164Z,99779.41
2018-11-05T05:58:50.342Z,99786.23
2018-11-05T06:01:19.562Z,99790.06
2018-11-05T06:03:48.522Z,99798.97
2018-11-05T06:06:17.670Z,99807.53
2018-11-05T06:08:46.432Z,99803.50
2018-11-05T06:11:15.575Z,99802.68
2018-11-05T06:13:44.566Z,99808.66
2018-11-05T06:16:13.488Z,99796.33
2018-11-05T06:18:42.419Z,99804.58
2018-11-05T06:21:13.606Z,99810.02
2018-11-05T06:23:43.084Z,99814.09
2018-11-05T06:26:12.046Z,99818.37
2018-11-05T06:28:41.096Z,99822.23
2018-11-05T06:31:10.022Z,99826.06
2018-11-05T06:33:38.953Z,99825.72
2018-11-05T06:36:07.916Z,99826.27
2018-11-05T06:38:36.842Z,99828.53
2018-11-05T06:41:06.535Z,99832.23
2018-11-05T06:43:35.498Z,99832.02
2018-11-05T06:46:04.473Z,99829.20
2018-11-05T06:48:33.397Z,99823.42
2018-11-05T06:51:02.515Z,99826.30
2018-11-05T06:53:31.534Z,99829.27
2018-11-05T06:56:00.540Z,99824.77
2018-11-05T06:58:29.535Z,99825.95
2018-11-05T07:00:58.609Z,99822.08
2018-11-05T07:03:27.585Z,99817.05
2018-11-05T07:05:56.553Z,99814.36
2018-11-05T07:08:25.493Z,99818.39
2018-11-05T07:10:54.580Z,99819.73
2018-11-05T07:13:23.508Z,99818.63
2018-11-05T07:15:52.486Z,99813.95
2018-11-05T07:18:21.456Z,99819.63
2018-11-05T07:20:50.353Z,99821.52
2018-11-05T07:23:19.332Z,99822.20
2018-11-05T07:25:48.260Z,99832.35
2018-11-05T07:28:17.184Z,99828.58
2018-11-05T07:30:46.123Z,99825.05
2018-11-05T07:33:15.261Z,99825.28
2018-11-05T07:35:44.159Z,99822.80
2018-11-05T07:38:13.098Z,99821.89
2018-11-05T07:40:42.031Z,99817.13
2018-11-05T07:43:10.984Z,99817.28
2018-11-05T07:45:39.886Z,99823.16
2018-11-05T07:48:08.813Z,99820.70
2018-11-05T07:50:37.793Z,99819.12
2018-11-05T07:53:06.756Z,99818.01
2018-11-05T07:55:35.712Z,99817.66
2018-11-05T07:58:04.754Z,99820.52
2018-11-05T08:00:44.966Z,99821.08
2018-11-05T08:03:13.893Z,99807.76
2018-11-05T08:05:42.863Z,99814.04
2018-11-05T08:08:11.869Z,99811.02
2018-11-05T08:10:40.764Z,99802.59
2018-11-05T08:13:09.783Z,99800.06
2018-11-05T08:15:38.736Z,99803.25
2018-11-05T08:18:07.740Z,99814.66
2018-11-05T08:20:36.650Z,99804.73
2018-11-05T08:23:05.617Z,99804.73
2018-11-05T08:25:34.909Z,99801.22
2018-11-05T08:28:04.122Z,99796.80
2018-11-05T08:30:33.066Z,99792.56
2018-11-05T08:33:02.074Z,99790.07
2018-11-05T08:35:31.013Z,99792.04
2018-11-05T08:37:59.945Z,99797.84
2018-11-05T08:40:28.884Z,99796.46
2018-11-05T08:42:58.112Z,99793.42
2018-11-05T08:45:28.649Z,99786.91
2018-11-05T08:47:57.618Z,99780.68
2018-11-05T08:50:26.622Z,99783.75
2018-11-05T08:52:55.550Z,99784.79
2018-11-05T08:55:25.647Z,99788.03
2018-11-05T08:57:54.634Z,99790.20
2018-11-05T09:00:28.866Z,99793.04
2018-11-05T09:02:57.823Z,99786.92
2018-11-05T09:05:26.773Z,99777.56
2018-11-05T09:07:56.166Z,99783.52
2018-11-05T09:10:25.368Z,99779.16
2018-11-05T09:12:54.234Z,99783.12
2018-11-05T09:15:23.532Z,99782.65
2018-11-05T09:17:52.789Z,99789.31
2018-11-05T09:20:21.731Z,99786.46
2018-11-05T09:22:51.369Z,99793.05
2018-11-05T09:25:20.338Z,99785.90
2018-11-05T09:27:49.357Z,99785.95
2018-11-05T09:30:19.537Z,99786.52
2018-11-05T09:32:48.469Z,99796.67
2018-11-05T09:35:17.439Z,99789.58
2018-11-05T09:37:46.460Z,99784.41
2018-11-05T09:40:17.360Z,99783.26
2018-11-05T09:42:46.944Z,99770.23
2018-11-05T09:45:17.950Z,99763.35
2018-11-05T09:47:47.218Z,99763.41
2018-11-05T09:50:16.629Z,99762.98
2018-11-05T09:52:45.608Z,99756.63
2018-11-05T09:55:15.158Z,99757.48
2018-11-05T09:57:44.249Z,99748.26
2018-11-05T10:00:15.973Z,99749.22
2018-11-05T10:02:50.299Z,99744.81
2018-11-05T10:05:19.327Z,99742.34
2018-11-05T10:07:48.187Z,99743.34
2018-11-05T10:10:17.828Z,99740.45
2018-11-05T10:12:46.720Z,99740.58
2018-11-05T10:15:16.823Z,99739.12
2018-11-05T10:17:47.007Z,99731.03
2018-11-05T10:20:19.725Z,99736.84
2018-11-05T10:22:48.683Z,99725.55
2018-11-05T10:25:17.864Z,99728.59
2018-11-05T10:27:47.320Z,99723.82
2018-11-05T10:30:19.343Z,99712.59
2018-11-05T10:32:48.273Z,99706.84
2018-11-05T10:35:17.651Z,99706.72
2018-11-05T10:37:46.837Z,99708.65
2018-11-05T10:40:17.800Z,99699.73
2018-11-05T10:42:47.288Z,99691.30
2018-11-05T10:45:18.756Z,99691.03
2018-11-05T10:47:47.837Z,99704.14
2018-11-05T10:50:17.786Z,99694.77
2018-11-05T10:52:48.192Z,99697.92
2018-11-05T10:55:17.162Z,99693.02
2018-11-05T10:57:46.368Z,99684.81
2018-11-05T11:01:21.530Z,99686.05
2018-11-05T11:03:55.940Z,99680.03
2018-11-05T11:06:24.881Z,99673.98
2018-11-05T11:08:53.870Z,99669.62
2018-11-05T11:11:22.937Z,99663.42
2018-11-05T11:13:51.881Z,99661.78
2018-11-05T11:16:20.845Z,99666.69
2018-11-05T11:18:49.788Z,99659.39
2018-11-05T11:21:18.722Z,99657.83
2018-11-05T11:23:47.711Z,99663.30
2018-11-05T11:26:16.640Z,99665.31
2018-11-05T11:28:45.818Z,99662.97
2018-11-05T11:31:14.724Z,99659.11
2018-11-05T11:33:43.676Z,99666.09
2018-11-05T11:36:12.781Z,99671.67
2018-11-05T11:38:41.740Z,99660.58
2018-11-05T11:41:10.660Z,99654.16
2018-11-05T11:43:39.623Z,99659.92
2018-11-05T11:46:08.551Z,99661.28
2018-11-05T11:48:37.560Z,99662.35
2018-11-05T11:51:08.618Z,99660.38
2018-11-05T11:53:38.173Z,99662.68
2018-11-05T11:56:07.104Z,99665.44
2018-11-05T11:58:36.046Z,99669.53
2018-11-05T12:01:05.033Z,99672.94
2018-11-05T12:03:34.062Z,99671.81
2018-11-05T12:06:03.010Z,99670.80
2018-11-05T12:08:31.969Z,99671.48
2018-11-05T12:11:01.235Z,99673.52
2018-11-05T12:13:30.353Z,99665.61
2018-11-05T12:15:59.377Z,99669.34
2018-11-05T12:18:28.314Z,99665.06
2018-11-05T12:20:57.315Z,99664.59
2018-11-05T12:23:26.249Z,99674.08
2018-11-05T12:25:55.204Z,99683.47
2018-11-05T12:28:25.135Z,99685.69
2018-11-05T12:30:54.177Z,99673.35
2018-11-05T12:33:23.183Z,99677.73
2018-11-05T12:35:52.192Z,99672.50
2018-11-05T12:38:21.192Z,99678.25
2018-11-05T12:40:50.119Z,99665.09
2018-11-05T12:43:19.081Z,99674.89
2018-11-05T12:45:48.022Z,99680.20
2018-11-05T12:48:16.920Z,99683.66
2018-11-05T12:50:45.916Z,99678.24
2018-11-05T12:53:14.800Z,99678.99
2018-11-05T12:55:43.809Z,99675.92
2018-11-05T12:58:12.665Z,99674.89
2018-11-05T13:00:41.648Z,99665.42
2018-11-05T13:03:10.587Z,99666.98
2018-11-05T13:05:39.513Z,99671.28
2018-11-05T13:08:08.439Z,99662.20
2018-11-05T13:10:37.634Z,99664.94
2018-11-05T13:13:06.625Z,99664.33
2018-11-05T13:15:35.542Z,99664.00
2018-11-05T13:18:04.669Z,99669.95
2018-11-05T13:20:33.609Z,99671.19
2018-11-05T13:23:02.764Z,99670.30
2018-11-05T13:25:31.718Z,99666.20
2018-11-05T13:28:00.654Z,99663.28
2018-11-05T13:30:29.594Z,99668.85
2018-11-05T13:32:58.557Z,99666.80
2018-11-05T13:35:27.497Z,99671.22
2018-11-05T13:37:56.996Z,99672.10
2018-11-05T13:40:25.481Z,99671.19
2018-11-05T13:42:54.491Z,99666.89
2018-11-05T13:45:25.126Z,99661.83
2018-11-05T13:47:54.954Z,99650.34
2018-11-05T13:50:23.153Z,99655.58
2018-11-05T13:52:52.154Z,99649.23
2018-11-05T13:55:21.209Z,99645.28
2018-11-05T13:57:50.478Z,99642.33
2018-11-05T14:00:20.579Z,99636.13
2018-11-05T14:02:49.949Z,99636.38
2018-11-05T14:05:18.969Z,99636.11
2018-11-05T14:07:47.960Z,99639.12
2018-11-05T14:10:18.594Z,99639.22
2018-11-05T14:12:47.973Z,99641.55
2018-11-05T14:15:16.993Z,99636.36
2018-11-05T14:17:46.192Z,99631.52
2018-11-05T14:20:16.196Z,99637.08
2018-11-05T14:22:45.216Z,99635.02
2018-11-05T14:25:15.447Z,99639.63
2018-11-05T14:27:45.617Z,99650.63
2018-11-05T14:30:14.668Z,99643.87
2018-11-05T14:32:45.692Z,99641.84
2018-11-05T14:35:14.690Z,99644.53
2018-11-05T14:37:43.604Z,99635.45
2018-11-05T14:40:13.997Z,99634.77
2018-11-05T14:42:43.741Z,99639.88
2018-11-05T14:45:20.872Z,99644.66
2018-11-05T14:47:51.067Z,99644.28
2018-11-05T14:50:21.467Z,99645.97
2018-11-05T14:52:50.920Z,99643.31
2018-11-05T14:55:20.501Z,99646.35
2018-11-05T14:57:50.847Z,99632.56
2018-11-05T15:00:21.244Z,99637.14
2018-11-05T15:02:50.785Z,99627.56
2018-11-05T15:05:19.751Z,99630.02
2018-11-05T15:07:52.658Z,99629.00
2018-11-05T15:10:23.946Z,99628.05
2018-11-05T15:12:52.984Z,99629.67
2018-11-05T15:15:22.362Z,99624.28
2018-11-05T15:17:51.311Z,99617.14
2018-11-05T15:20:21.723Z,99618.88
2018-11-05T15:22:50.530Z,99609.83
2018-11-05T15:25:20.356Z,99611.25
2018-11-05T15:27:49.249Z,99607.33
2018-11-05T15:30:19.495Z,99608.70
2018-11-05T15:32:48.492Z,99606.44
2018-11-05T15:35:17.572Z,99601.91
2018-11-05T15:37:46.689Z,99605.48
2018-11-05T15:40:17.967Z,99598.73
2018-11-05T15:42:46.936Z,99593.99
2018-11-05T15:45:17.282Z,99604.06
2018-11-05T15:47:46.967Z,99602.00
2018-11-05T15:50:17.313Z,99606.36
2018-11-05T15:52:46.493Z,99608.86
2018-11-05T15:55:15.505Z,99612.53
2018-11-05T15:57:44.730Z,99609.76
2018-11-05T16:00:16.217Z,99611.20
2018-11-05T16:02:46.602Z,99608.29
2018-11-05T16:05:15.758Z,99616.64
2018-11-05T16:07:44.960Z,99607.31
2018-11-05T16:10:13.922Z,99609.76
2018-11-05T16:12:42.891Z,99614.55
2018-11-05T16:15:12.663Z,99608.59
2018-11-05T16:17:41.745Z,99618.03
2018-11-05T16:20:13.524Z,99609.73
2018-11-05T16:22:42.907Z,99614.25
2018-11-05T16:25:12.029Z,99614.66
2018-11-05T16:27:41.219Z,99619.91
2018-11-05T16:30:12.200Z,99620.84
2018-11-05T16:32:41.707Z,99621.31
2018-11-05T16:35:11.093Z,99624.44
2018-11-05T16:37:40.146Z,99625.31
2018-11-05T16:40:11.390Z,99618.22
2018-11-05T16:42:40.590Z,99633.33
2018-11-05T16:45:10.423Z,99633.98
2018-11-05T16:47:39.929Z,99633.23
2018-11-05T16:50:14.664Z,99632.67
2018-11-05T16:52:43.798Z,99629.98
2018-11-05T16:55:13.642Z,99617.84
2018-11-05T16:57:43.377Z,99623.23
2018-11-05T17:00:13.013Z,99624.53
2018-11-05T17:02:42.694Z,99621.19
2018-11-05T17:05:12.334Z,99623.48
2018-11-05T17:07:41.407Z,99625.88
2018-11-05T17:10:12.725Z,99638.94
2018-11-05T17:12:42.486Z,99650.30
2018-11-05T17:15:13.015Z,99646.33
2018-11-05T17:17:42.516Z,99642.20
2018-11-05T17:20:13.462Z,99633.22
2018-11-05T17:22:42.961Z,99628.03
2018-11-05T17:25:12.711Z,99636.36
2018-11-05T17:27:42.662Z,99622.63
2018-11-05T17:30:14.518Z,99611.58
2018-11-05T17:32:43.958Z,99625.26
2018-11-05T17:35:13.859Z,99616.28
2018-11-05T17:37:43.164Z,99609.16
2018-11-05T17:40:13.575Z,99608.16
2018-11-05T17:42:42.738Z,99621.09
2018-11-05T17:45:13.334Z,99613.69
2018-11-05T17:47:42.619Z,99619.27
2018-11-05T17:50:14.601Z,99617.52
2018-11-05T17:52:44.095Z,99611.66
2018-11-05T17:55:13.781Z,99599.30
2018-11-05T17:57:43.745Z,99601.47
2018-11-05T18:00:14.862Z,99585.89
2018-11-05T18:02:43.958Z,99585.10
2018-11-05T18:05:13.052Z,99569.70
2018-11-05T18:07:42.259Z,99598.68
2018-11-05T18:10:11.293Z,99593.37
2018-11-05T18:12:40.312Z,99589.94
2018-11-05T18:15:10.284Z,99628.58
2018-11-05T18:17:39.982Z,99600.03
2018-11-05T18:20:10.360Z,99619.70
2018-11-05T18:22:39.368Z,99603.13
2018-11-05T18:25:10.167Z,99613.44
2018-11-05T18:27:39.148Z,99620.74
2018-11-05T18:30:09.414Z,99595.50
2018-11-05T18:32:39.558Z,99592.25
2018-11-05T18:35:15.764Z,99609.08
2018-11-05T18:37:46.428Z,99623.19
2018-11-05T18:40:15.990Z,99593.11
2018-11-05T18:42:45.272Z,99582.19
2018-11-05T18:45:14.296Z,99593.45
2018-11-05T18:47:43.425Z,99578.80
2018-11-05T18:50:13.878Z,99578.20
2018-11-05T18:52:43.180Z,99579.23
2018-11-05T18:55:15.216Z,99589.07
2018-11-05T18:57:48.100Z,99585.36
2018-11-05T19:00:20.532Z,99600.12
2018-11-05T19:02:50.725Z,99583.59
2018-11-05T19:05:20.331Z,99590.28
2018-11-05T19:07:49.586Z,99587.66
2018-11-05T19:10:18.604Z,99573.84
2018-11-05T19:12:48.206Z,99593.11
2018-11-05T19:15:17.496Z,99585.02
2018-11-05T19:17:47.357Z,99578.44
2018-11-05T19:20:16.710Z,99571.87
2018-11-05T19:22:46.129Z,99577.73
2018-11-05T19:25:16.185Z,99572.43
2018-11-05T19:27:45.151Z,99561.17
2018-11-05T19:30:16.768Z,99559.42
2018-11-05T19:32:46.371Z,99563.47
2018-11-05T19:35:15.356Z,99574.33
2018-11-05T19:37:44.357Z,99570.46
2018-11-05T19:40:14.560Z,99576.08
2018-11-05T19:42:45.277Z,99569.72
2018-11-05T19:45:16.603Z,99555.94
2018-11-05T19:47:46.430Z,99569.89
2018-11-05T19:50:18.515Z,99553.63
2018-11-05T19:52:49.244Z,99552.44
2018-11-05T19:55:19.670Z,99541.49
2018-11-05T19:57:49.516Z,99559.02
2018-11-05T20:00:27.657Z,99554.50
2018-11-05T20:02:59.025Z,99559.81
2018-11-05T20:05:33.272Z,99563.15
2018-11-05T20:08:03.593Z,99573.19
2018-11-05T20:10:32.890Z,99571.52
2018-11-05T20:13:02.516Z,99577.23
2018-11-05T20:15:33.942Z,99573.75
2018-11-05T20:18:10.741Z,99573.42
2018-11-05T20:20:44.445Z,99592.46
2018-11-05T20:23:17.517Z,99591.64
2018-11-05T20:25:50.999Z,99584.53
2018-11-05T20:28:20.733Z,99578.73
2018-11-05T20:30:53.136Z,99571.90
2018-11-05T20:33:23.994Z,99580.84
2018-11-05T20:35:55.072Z,99579.09
2018-11-05T20:38:25.904Z,99588.28
2018-11-05T20:41:01.107Z,99588.21
2018-11-05T20:43:36.838Z,99588.21
2018-11-05T20:46:08.578Z,99596.45
2018-11-05T20:48:43.102Z,99590.34
2018-11-05T20:51:14.569Z,99577.18
2018-11-05T20:53:46.697Z,99592.55
2018-11-05T20:56:19.699Z,99575.38
2018-11-05T20:58:52.815Z,99564.68
2018-11-05T21:01:25.689Z,99571.72
2018-11-05T21:03:55.645Z,99570.75
2018-11-05T21:06:24.888Z,99570.94
2018-11-05T21:08:53.874Z,99570.67
2018-11-05T21:11:22.951Z,99560.39
2018-11-05T21:13:51.973Z,99561.33
2018-11-05T21:16:20.966Z,99555.05
2018-11-05T21:18:50.011Z,99560.05
2018-11-05T21:21:19.213Z,99558.33
2018-11-05T21:23:47.997Z,99550.86
2018-11-05T21:26:17.018Z,99547.38
2018-11-05T21:28:46.139Z,99562.48
2018-11-05T21:31:15.533Z,99557.10
2018-11-05T21:33:44.548Z,99559.08
2018-11-05T21:36:13.609Z,99551.79
2018-11-05T21:38:42.626Z,99557.51
2018-11-05T21:41:11.570Z,99556.65
2018-11-05T21:43:40.665Z,99566.78
2018-11-05T21:46:09.771Z,99554.18
2018-11-05T21:48:38.941Z,99550.14
2018-11-05T21:51:07.942Z,99554.15
2018-11-05T21:53:36.937Z,99559.45
2018-11-05T21:56:06.047Z,99548.84
2018-11-05T21:58:35.110Z,99550.37
2018-11-05T22:01:04.096Z,99552.98
2018-11-05T22:03:33.128Z,99554.33
2018-11-05T22:06:02.202Z,99555.90
2018-11-05T22:08:31.391Z,99547.89
2018-11-05T22:11:00.346Z,99563.30
2018-11-05T22:13:36.060Z,99564.34
2018-11-05T22:16:05.465Z,99556.72
2018-11-05T22:18:34.443Z,99558.06
2018-11-05T22:21:03.436Z,99547.64
2018-11-05T22:23:32.509Z,99552.38
2018-11-05T22:26:01.498Z,99552.05
2018-11-05T22:28:30.516Z,99549.98
2018-11-05T22:31:06.633Z,99552.94
2018-11-05T22:33:35.703Z,99537.02
2018-11-05T22:36:04.954Z,99540.42
2018-11-05T22:38:33.922Z,99558.17
2018-11-05T22:41:02.964Z,99556.72
2018-11-05T22:43:32.152Z,99560.57
2018-11-05T22:46:01.236Z,99546.06
2018-11-05T22:48:30.250Z,99550.73
2018-11-05T22:50:59.378Z,99551.19
2018-11-05T22:53:28.340Z,99550.11
2018-11-05T22:55:57.490Z,99543.89
2018-11-05T22:58:26.540Z,99547.78
2018-11-05T23:01:01.037Z,99555.30
2018-11-05T23:03:30.764Z,99546.44
2018-11-05T23:06:00.066Z,99550.97
2018-11-05T23:08:29.108Z,99546.77
2018-11-05T23:10:58.109Z,99558.06
2018-11-05T23:13:27.091Z,99557.42
2018-11-05T23:15:56.173Z,99568.34
2018-11-05T23:18:25.114Z,99571.17
2018-11-05T23:20:54.095Z,99561.94
2018-11-05T23:23:23.293Z,99559.55
2018-11-05T23:25:52.690Z,99562.57
2018-11-05T23:28:21.893Z,99555.03
2018-11-05T23:30:52.273Z,99551.84
2018-11-05T23:33:21.969Z,99545.75
2018-11-05T23:35:50.895Z,99550.41
2018-11-05T23:38:19.941Z,99554.08
2018-11-05T23:40:49.047Z,99549.48
2018-11-05T23:43:17.973Z,99554.09
2018-11-05T23:45:46.910Z,99557.34
2018-11-05T23:48:17.108Z,99565.07
2018-11-05T23:50:46.445Z,99557.72
2018-11-05T23:53:15.464Z,99576.06
2018-11-05T23:55:44.568Z,99584.27
2018-11-05T23:58:13.538Z,99573.22
